Wantage, United Kingdom
Current Conditions -  °F | °C
As of 11:50 AM on Monday 26 Jan 2015 (Local Time) from EGVN Reporting Station
Broken Clouds Broken Clouds  
Wind Chill: 43°   Ceiling: 25000
Heat Index: 48°   Visibility: 6mi
Dew Point: 37°   Wind: 14mph
Humidity: 66%   Direction: 320°NW
Pressure: 30.21"   Gusts: NA
Location:  51.6°N, 1.42°W
Report Text: EGVN 261150Z 32012KT 9999 FEW020 BKN250 09/03 Q1023 BLU NOSIG
Loading
Personal Weather Stations






























Interactive Weather Map New forecast layout! Learn more

10-Day Weather Forecast

Advertisements
Track Severe Weather on mobile